createdAt,value
2023-03-20T00:00:31.779Z,3.80
2023-03-20T00:02:59.692Z,4.83
2023-03-20T00:05:29.976Z,4.33
2023-03-20T00:07:59.612Z,4.10
2023-03-20T00:10:34.046Z,3.83
2023-03-20T00:13:02.642Z,4.03
2023-03-20T00:15:33.325Z,3.90
2023-03-20T00:18:01.308Z,3.97
2023-03-20T00:20:31.564Z,3.60
2023-03-20T00:23:00.836Z,3.80
2023-03-20T00:25:29.205Z,3.70
2023-03-20T00:27:57.106Z,4.30
2023-03-20T00:30:29.435Z,3.60
2023-03-20T00:32:58.989Z,3.90
2023-03-20T00:35:30.399Z,3.37
2023-03-20T00:38:00.479Z,3.30
2023-03-20T00:40:31.763Z,3.20
2023-03-20T00:43:01.972Z,3.40
2023-03-20T00:45:33.005Z,3.67
2023-03-20T00:48:01.804Z,3.70
2023-03-20T00:50:31.957Z,3.13
2023-03-20T00:53:01.119Z,3.57
2023-03-20T00:55:30.727Z,3.40
2023-03-20T00:58:00.590Z,3.60
2023-03-20T01:00:37.655Z,3.83
2023-03-20T01:03:13.154Z,3.60
2023-03-20T01:05:41.343Z,3.70
2023-03-20T01:08:18.313Z,3.57
2023-03-20T01:10:47.893Z,3.50
2023-03-20T01:13:21.548Z,3.40
2023-03-20T01:15:50.689Z,3.70
2023-03-20T01:18:20.079Z,3.60
2023-03-20T01:20:48.332Z,3.70
2023-03-20T01:23:17.573Z,3.17
2023-03-20T01:25:45.717Z,3.30
2023-03-20T01:28:16.981Z,3.40
2023-03-20T01:30:46.582Z,3.07
2023-03-20T01:33:16.596Z,4.20
2023-03-20T01:35:46.470Z,3.37
2023-03-20T01:38:16.502Z,3.37
2023-03-20T01:40:53.903Z,3.00
2023-03-20T01:43:23.285Z,3.17
2023-03-20T01:46:00.419Z,3.10
2023-03-20T01:48:57.063Z,2.67
2023-03-20T01:51:27.458Z,2.50
2023-03-20T01:54:01.624Z,2.90
2023-03-20T01:56:34.318Z,2.90
2023-03-20T01:59:07.935Z,2.70
2023-03-20T02:01:36.810Z,2.80
2023-03-20T02:04:05.755Z,2.97
2023-03-20T02:06:47.343Z,2.60
2023-03-20T02:09:19.322Z,2.53
2023-03-20T02:11:50.567Z,2.20
2023-03-20T02:14:21.693Z,2.60
2023-03-20T02:17:03.483Z,2.53
2023-03-20T02:19:51.537Z,2.20
2023-03-20T02:22:55.339Z,2.83
2023-03-20T02:25:47.295Z,3.47
2023-03-20T02:28:47.538Z,2.10
2023-03-20T02:31:37.815Z,2.67
2023-03-20T02:34:43.907Z,2.13
2023-03-20T02:37:40.548Z,2.10
2023-03-20T02:40:22.128Z,2.93
2023-03-20T02:42:59.516Z,2.20
2023-03-20T02:45:30.123Z,2.37
2023-03-20T02:48:21.061Z,2.23
2023-03-20T02:50:55.133Z,2.13
2023-03-20T02:53:35.997Z,2.07
2023-03-20T02:56:13.288Z,2.23
2023-03-20T02:58:47.383Z,2.13
2023-03-20T03:01:20.975Z,2.07
2023-03-20T03:03:53.522Z,2.47
2023-03-20T03:06:26.177Z,2.20
2023-03-20T03:09:02.251Z,2.30
2023-03-20T03:11:31.803Z,2.23
2023-03-20T03:14:00.275Z,2.20
2023-03-20T03:16:32.397Z,2.30
2023-03-20T03:19:08.512Z,2.43
2023-03-20T03:21:39.592Z,2.67
2023-03-20T03:24:39.185Z,3.53
2023-03-20T03:27:14.848Z,3.03
2023-03-20T03:29:44.074Z,3.00
2023-03-20T03:32:24.731Z,3.27
2023-03-20T03:34:53.108Z,2.60
2023-03-20T03:37:27.851Z,3.97
2023-03-20T03:40:11.774Z,2.63
2023-03-20T03:42:43.008Z,2.50
2023-03-20T03:45:15.149Z,2.30
2023-03-20T03:47:47.391Z,2.93
2023-03-20T03:50:20.438Z,3.30
2023-03-20T03:52:52.537Z,2.63
2023-03-20T03:55:25.874Z,2.90
2023-03-20T03:58:06.002Z,3.00
2023-03-20T04:00:36.536Z,2.97
2023-03-20T04:03:08.177Z,3.00
2023-03-20T04:05:39.093Z,2.67
2023-03-20T04:08:07.533Z,3.57
2023-03-20T04:10:36.688Z,2.73
2023-03-20T04:13:04.695Z,3.00
2023-03-20T04:15:32.589Z,2.80
2023-03-20T04:18:00.591Z,3.00
2023-03-20T04:20:28.444Z,2.87
2023-03-20T04:22:56.308Z,2.63
2023-03-20T04:25:27.453Z,2.87
2023-03-20T04:27:58.107Z,2.50
2023-03-20T04:30:54.139Z,2.13
2023-03-20T04:33:51.424Z,2.27
2023-03-20T04:36:45.549Z,2.20
2023-03-20T04:39:15.488Z,2.07
2023-03-20T04:41:43.362Z,1.97
2023-03-20T04:44:13.205Z,2.10
2023-03-20T04:46:43.914Z,3.23
2023-03-20T04:49:16.719Z,2.40
2023-03-20T04:51:44.835Z,2.53
2023-03-20T04:54:15.335Z,2.90
2023-03-20T04:56:44.123Z,2.50
2023-03-20T04:59:17.339Z,2.40
2023-03-20T05:01:45.430Z,2.90
2023-03-20T05:04:13.413Z,2.50
2023-03-20T05:06:41.703Z,4.13
2023-03-20T05:09:09.735Z,2.80
2023-03-20T05:11:38.558Z,4.43
2023-03-20T05:14:06.748Z,3.00
2023-03-20T05:17:05.470Z,3.00
2023-03-20T05:19:57.295Z,3.00
2023-03-20T05:22:39.704Z,3.73
2023-03-20T05:25:13.416Z,3.50
2023-03-20T05:28:06.232Z,3.73
2023-03-20T05:30:54.363Z,3.20
2023-03-20T05:33:38.409Z,4.03
2023-03-20T05:36:41.456Z,3.83
2023-03-20T05:39:29.504Z,3.80
2023-03-20T05:42:16.631Z,4.97
2023-03-20T05:45:02.933Z,4.10
2023-03-20T05:47:46.000Z,4.37
2023-03-20T05:50:26.504Z,4.20
2023-03-20T05:53:17.227Z,4.17
2023-03-20T05:55:50.821Z,4.80
2023-03-20T05:58:38.948Z,4.20
2023-03-20T06:01:42.226Z,4.40
2023-03-20T06:04:23.239Z,4.80
2023-03-20T06:07:12.698Z,4.80
2023-03-20T06:09:43.648Z,5.20
2023-03-20T06:12:14.309Z,5.07
2023-03-20T06:14:42.334Z,5.40
2023-03-20T06:17:10.816Z,5.90
2023-03-20T06:19:41.359Z,4.90
2023-03-20T06:22:09.345Z,5.10
2023-03-20T06:24:38.469Z,5.40
2023-03-20T06:27:07.223Z,4.73
2023-03-20T06:29:35.500Z,5.27
2023-03-20T06:32:17.360Z,5.30
2023-03-20T06:34:47.657Z,4.93
2023-03-20T06:37:15.913Z,4.90
2023-03-20T06:39:45.296Z,7.17
2023-03-20T06:42:16.262Z,5.33
2023-03-20T06:44:45.923Z,4.50
2023-03-20T06:47:24.998Z,5.20
2023-03-20T06:49:52.825Z,4.80
2023-03-20T06:52:22.728Z,4.70
2023-03-20T06:55:10.871Z,4.70
2023-03-20T06:57:39.293Z,5.00
2023-03-20T07:00:33.202Z,4.80
2023-03-20T07:03:04.754Z,4.20
2023-03-20T07:05:34.009Z,4.60
2023-03-20T07:08:05.466Z,3.90
2023-03-20T07:10:35.428Z,4.23
2023-03-20T07:13:03.325Z,4.27
2023-03-20T07:15:32.381Z,3.40
2023-03-20T07:18:01.400Z,4.13
2023-03-20T07:20:29.396Z,4.00
2023-03-20T07:22:57.333Z,4.47
2023-03-20T07:25:41.326Z,4.00
2023-03-20T07:28:11.772Z,3.90
2023-03-20T07:30:42.903Z,3.60
2023-03-20T07:33:11.558Z,3.40
2023-03-20T07:35:40.444Z,3.27
2023-03-20T07:38:08.973Z,3.50
2023-03-20T07:40:45.910Z,3.90
2023-03-20T07:43:18.483Z,3.93
2023-03-20T07:46:10.201Z,3.80
2023-03-20T07:48:39.724Z,4.13
2023-03-20T07:51:08.037Z,4.37
2023-03-20T07:53:35.961Z,4.10
2023-03-20T07:56:05.582Z,4.73
2023-03-20T07:58:34.854Z,5.13
2023-03-20T08:01:04.071Z,5.07
2023-03-20T08:03:32.414Z,5.23
2023-03-20T08:06:01.747Z,5.00
2023-03-20T08:08:29.780Z,5.07
2023-03-20T08:10:57.563Z,4.60
2023-03-20T08:13:25.394Z,5.03
2023-03-20T08:15:54.615Z,5.57
2023-03-20T08:18:22.539Z,4.60
2023-03-20T08:20:50.871Z,4.77
2023-03-20T08:23:20.750Z,4.80
2023-03-20T08:25:49.943Z,4.50
2023-03-20T08:28:18.819Z,4.37
2023-03-20T08:30:47.187Z,4.10
2023-03-20T08:33:17.406Z,3.90
2023-03-20T08:35:45.665Z,3.77
2023-03-20T08:38:14.692Z,3.93
2023-03-20T08:40:42.737Z,3.40
2023-03-20T08:43:10.779Z,3.90
2023-03-20T08:45:38.894Z,3.37
2023-03-20T08:48:06.931Z,3.63
2023-03-20T08:50:36.292Z,3.30
2023-03-20T08:53:04.270Z,3.43
2023-03-20T08:55:32.112Z,3.00
2023-03-20T08:58:00.483Z,3.53
2023-03-20T09:00:28.713Z,3.50
2023-03-20T09:02:56.790Z,3.10
2023-03-20T09:05:25.089Z,3.47
2023-03-20T09:07:54.376Z,2.53
2023-03-20T09:10:22.462Z,2.30
2023-03-20T09:12:50.243Z,2.77
2023-03-20T09:15:18.193Z,2.73
2023-03-20T09:17:45.978Z,2.40
2023-03-20T09:20:13.818Z,2.43
2023-03-20T09:22:43.764Z,2.50
2023-03-20T09:25:13.587Z,2.57
2023-03-20T09:27:41.355Z,2.50
2023-03-20T09:30:11.466Z,2.27
2023-03-20T09:32:39.442Z,2.63
2023-03-20T09:35:07.846Z,2.10
2023-03-20T09:37:36.477Z,2.33
2023-03-20T09:40:05.665Z,1.80
2023-03-20T09:42:48.854Z,1.60
2023-03-20T09:45:22.305Z,3.10
2023-03-20T09:48:01.454Z,1.80
2023-03-20T09:50:37.474Z,1.80
2023-03-20T09:53:12.256Z,2.10
2023-03-20T09:55:43.117Z,2.27
2023-03-20T09:58:18.171Z,3.00
2023-03-20T10:00:47.683Z,1.80
2023-03-20T10:03:22.444Z,1.37
2023-03-20T10:05:57.065Z,1.67
2023-03-20T10:08:29.875Z,1.40
2023-03-20T10:11:07.671Z,1.80
2023-03-20T10:13:57.009Z,1.70
2023-03-20T10:16:35.983Z,1.53
2023-03-20T10:19:11.881Z,1.30
2023-03-20T10:21:44.502Z,2.23
2023-03-20T10:24:20.628Z,1.80
2023-03-20T10:26:53.486Z,1.67
2023-03-20T10:29:34.749Z,2.03
2023-03-20T10:32:09.228Z,1.93
2023-03-20T10:34:55.055Z,1.37
2023-03-20T10:37:39.266Z,1.67
2023-03-20T10:40:26.806Z,1.40
2023-03-20T10:42:58.463Z,1.10
2023-03-20T10:45:40.475Z,1.13
2023-03-20T10:48:17.220Z,1.40
2023-03-20T10:50:48.737Z,1.10
2023-03-20T10:53:27.551Z,1.43
2023-03-20T10:55:59.506Z,1.03
2023-03-20T10:58:31.096Z,0.90
2023-03-20T11:01:00.970Z,1.43
2023-03-20T11:03:31.928Z,2.33
2023-03-20T11:06:09.791Z,1.40
2023-03-20T11:08:42.044Z,1.00
2023-03-20T11:11:11.381Z,1.73
2023-03-20T11:13:41.502Z,2.23
2023-03-20T11:16:20.708Z,1.70
2023-03-20T11:18:50.481Z,1.50
2023-03-20T11:21:21.440Z,0.90
2023-03-20T11:23:50.393Z,1.17
2023-03-20T11:26:20.046Z,1.60
2023-03-20T11:28:51.232Z,1.43
2023-03-20T11:31:26.852Z,1.47
2023-03-20T11:34:12.402Z,1.17
2023-03-20T11:37:02.644Z,1.23
2023-03-20T11:39:38.136Z,1.00
2023-03-20T11:42:23.937Z,2.20
2023-03-20T11:44:59.485Z,2.20
2023-03-20T11:47:32.264Z,1.03
2023-03-20T11:50:01.712Z,1.70
2023-03-20T11:52:33.431Z,1.73
2023-03-20T11:55:04.186Z,1.10
2023-03-20T11:57:37.177Z,1.93
2023-03-20T12:00:36.288Z,1.57
2023-03-20T12:03:29.494Z,1.70
2023-03-20T12:06:01.137Z,1.40
2023-03-20T12:08:32.710Z,1.50
2023-03-20T12:11:04.579Z,1.27
2023-03-20T12:13:36.558Z,2.20
2023-03-20T12:16:07.985Z,1.90
2023-03-20T12:18:42.260Z,1.40
2023-03-20T12:21:16.496Z,1.40
2023-03-20T12:23:48.713Z,1.93
2023-03-20T12:26:21.337Z,1.70
2023-03-20T12:28:54.871Z,1.60
2023-03-20T12:31:27.345Z,1.70
2023-03-20T12:34:02.291Z,1.80
2023-03-20T12:36:33.792Z,1.50
2023-03-20T12:39:04.127Z,2.77
2023-03-20T12:41:41.257Z,2.17
2023-03-20T12:44:29.660Z,3.77
2023-03-20T12:47:07.126Z,2.07
2023-03-20T12:49:50.100Z,1.60
2023-03-20T12:52:28.750Z,2.10
2023-03-20T12:55:15.413Z,2.00
2023-03-20T12:57:56.622Z,2.00
2023-03-20T13:00:33.048Z,1.97
2023-03-20T13:03:11.708Z,1.80
2023-03-20T13:05:49.734Z,2.13
2023-03-20T13:08:32.533Z,1.60
2023-03-20T13:11:06.794Z,1.30
2023-03-20T13:13:42.860Z,1.47
2023-03-20T13:16:21.235Z,1.87
2023-03-20T13:18:59.884Z,1.93
2023-03-20T13:21:36.722Z,1.40
2023-03-20T13:24:25.692Z,1.63
2023-03-20T13:27:03.940Z,1.10
2023-03-20T13:29:43.029Z,1.40
2023-03-20T13:32:18.738Z,4.10
2023-03-20T13:35:08.356Z,1.63
2023-03-20T13:37:42.193Z,1.37
2023-03-20T13:40:17.944Z,1.30
2023-03-20T13:42:53.036Z,1.67
2023-03-20T13:45:32.060Z,1.93
2023-03-20T13:48:05.623Z,1.60
2023-03-20T13:50:41.633Z,1.57
2023-03-20T13:53:20.875Z,1.60
2023-03-20T13:55:56.090Z,1.70
2023-03-20T13:58:45.558Z,1.87
2023-03-20T14:01:23.203Z,1.43
2023-03-20T14:03:52.480Z,1.70
2023-03-20T14:06:49.686Z,1.50
2023-03-20T14:09:31.840Z,1.70
2023-03-20T14:12:06.289Z,1.43
2023-03-20T14:14:41.485Z,1.80
2023-03-20T14:17:19.071Z,1.73
2023-03-20T14:19:47.984Z,1.47
2023-03-20T14:22:18.574Z,1.60
2023-03-20T14:24:54.913Z,1.70
2023-03-20T14:27:42.742Z,1.13
2023-03-20T14:30:40.776Z,1.63
2023-03-20T14:33:24.621Z,1.70
2023-03-20T14:36:11.220Z,1.90
2023-03-20T14:38:48.339Z,2.07
2023-03-20T14:41:25.395Z,1.70
2023-03-20T14:44:02.010Z,1.70
2023-03-20T14:46:41.326Z,1.70
2023-03-20T14:49:25.302Z,1.77
2023-03-20T14:51:58.213Z,1.97
2023-03-20T14:54:29.402Z,2.30
2023-03-20T14:57:10.605Z,1.60
2023-03-20T14:59:38.878Z,2.03
2023-03-20T15:02:06.659Z,2.03
2023-03-20T15:04:39.050Z,1.90
2023-03-20T15:07:15.589Z,1.47
2023-03-20T15:09:46.507Z,2.17
2023-03-20T15:12:20.140Z,1.43
2023-03-20T15:14:54.241Z,2.93
2023-03-20T15:17:24.111Z,1.57
2023-03-20T15:19:51.965Z,2.20
2023-03-20T15:22:21.817Z,1.60
2023-03-20T15:24:54.057Z,1.93
2023-03-20T15:27:26.058Z,1.57
2023-03-20T15:29:56.387Z,1.43
2023-03-20T15:32:24.819Z,1.50
2023-03-20T15:34:53.047Z,1.77
2023-03-20T15:37:23.954Z,1.53
2023-03-20T15:39:55.448Z,1.63
2023-03-20T15:42:27.620Z,1.80
2023-03-20T15:44:56.899Z,1.67
2023-03-20T15:47:26.097Z,2.77
2023-03-20T15:49:56.039Z,3.63
2023-03-20T15:52:30.322Z,1.97
2023-03-20T15:55:00.012Z,1.90
2023-03-20T15:57:35.606Z,2.70
2023-03-20T16:00:06.696Z,2.30
2023-03-20T16:02:37.118Z,2.30
2023-03-20T16:05:06.338Z,1.60
2023-03-20T16:07:34.488Z,5.60
2023-03-20T16:10:02.651Z,2.00
2023-03-20T16:12:32.897Z,2.17
2023-03-20T16:15:00.875Z,2.20
2023-03-20T16:17:29.041Z,1.67
2023-03-20T16:19:57.144Z,1.50
2023-03-20T16:22:27.633Z,3.13
2023-03-20T16:24:58.194Z,4.80
2023-03-20T16:27:29.908Z,3.60
2023-03-20T16:29:59.445Z,2.07
2023-03-20T16:32:35.481Z,2.43
2023-03-20T16:35:06.909Z,3.83
2023-03-20T16:37:43.160Z,2.90
2023-03-20T16:40:17.229Z,2.00
2023-03-20T16:42:45.865Z,4.23
2023-03-20T16:45:25.891Z,4.17
2023-03-20T16:48:27.224Z,1.70
2023-03-20T16:51:04.254Z,3.43
2023-03-20T16:53:39.102Z,2.33
2023-03-20T16:56:12.724Z,1.80
2023-03-20T16:58:41.513Z,1.70
2023-03-20T17:01:18.906Z,2.53
2023-03-20T17:03:53.271Z,2.27
2023-03-20T17:06:38.936Z,2.20
2023-03-20T17:09:19.684Z,2.33
2023-03-20T17:11:50.585Z,2.30
2023-03-20T17:14:18.727Z,1.60
2023-03-20T17:16:47.931Z,1.87
2023-03-20T17:19:17.716Z,2.00
2023-03-20T17:21:46.911Z,1.87
2023-03-20T17:24:16.562Z,2.23
2023-03-20T17:26:47.448Z,2.17
2023-03-20T17:29:15.469Z,2.50
2023-03-20T17:31:43.387Z,4.00
2023-03-20T17:34:14.813Z,1.83
2023-03-20T17:36:43.040Z,4.20
2023-03-20T17:39:16.493Z,2.30
2023-03-20T17:41:44.312Z,1.90
2023-03-20T17:44:12.143Z,3.13
2023-03-20T17:46:56.258Z,3.30
2023-03-20T17:49:28.270Z,2.30
2023-03-20T17:51:56.786Z,1.90
2023-03-20T17:54:24.611Z,3.10
2023-03-20T17:56:52.432Z,2.33
2023-03-20T17:59:20.266Z,2.60
2023-03-20T18:01:48.123Z,2.40
2023-03-20T18:04:16.113Z,2.50
2023-03-20T18:06:47.774Z,2.13
2023-03-20T18:09:16.127Z,2.40
2023-03-20T18:11:46.647Z,2.60
2023-03-20T18:14:18.005Z,2.50
2023-03-20T18:16:46.562Z,2.50
2023-03-20T18:19:23.197Z,2.70
2023-03-20T18:21:52.472Z,3.27
2023-03-20T18:24:20.373Z,2.33
2023-03-20T18:26:48.289Z,2.90
2023-03-20T18:29:16.487Z,3.13
2023-03-20T18:31:44.571Z,2.90
2023-03-20T18:34:12.425Z,2.50
2023-03-20T18:36:40.296Z,3.97
2023-03-20T18:39:09.478Z,4.30
2023-03-20T18:41:37.436Z,4.07
2023-03-20T18:44:05.392Z,3.33
2023-03-20T18:46:33.274Z,3.80
2023-03-20T18:49:01.211Z,5.27
2023-03-20T18:51:29.081Z,3.30
2023-03-20T18:53:56.920Z,5.27
2023-03-20T18:56:28.330Z,5.00
2023-03-20T18:58:56.218Z,4.33
2023-03-20T19:01:24.231Z,6.17
2023-03-20T19:03:53.728Z,7.67
2023-03-20T19:06:23.290Z,5.73
2023-03-20T19:08:51.905Z,6.07
2023-03-20T19:11:21.548Z,4.73
2023-03-20T19:13:53.081Z,6.80
2023-03-20T19:16:24.459Z,4.40
2023-03-20T19:18:53.324Z,4.50
2023-03-20T19:21:26.094Z,6.17
2023-03-20T19:23:54.613Z,4.53
2023-03-20T19:26:24.425Z,6.27
2023-03-20T19:28:54.771Z,3.73
2023-03-20T19:31:23.044Z,4.97
2023-03-20T19:33:51.840Z,4.17
2023-03-20T19:36:26.884Z,5.33
2023-03-20T19:38:55.864Z,4.80
2023-03-20T19:41:24.241Z,5.60
2023-03-20T19:43:55.485Z,4.80
2023-03-20T19:46:39.092Z,5.37
2023-03-20T19:49:07.709Z,7.03
2023-03-20T19:51:36.006Z,4.00
2023-03-20T19:54:04.137Z,4.97
2023-03-20T19:56:34.504Z,4.90
2023-03-20T19:59:05.724Z,4.63
2023-03-20T20:01:33.796Z,6.60
2023-03-20T20:04:01.667Z,4.00
2023-03-20T20:06:32.649Z,4.60
2023-03-20T20:09:01.426Z,5.20
2023-03-20T20:11:29.699Z,3.70
2023-03-20T20:14:07.682Z,6.93
2023-03-20T20:16:42.487Z,3.47
2023-03-20T20:19:10.671Z,3.53
2023-03-20T20:24:27.177Z,4.10
2023-03-20T20:27:15.813Z,2.90
2023-03-20T20:29:47.887Z,3.63
2023-03-20T20:32:18.270Z,2.87
2023-03-20T20:38:30.989Z,3.30
2023-03-20T20:40:26.363Z,2.23
2023-03-20T20:43:01.382Z,3.43
2023-03-20T20:45:31.640Z,2.37
2023-03-20T20:48:01.950Z,4.23
2023-03-20T20:50:32.464Z,2.73
2023-03-20T20:53:00.881Z,2.70
2023-03-20T20:55:28.739Z,3.90
2023-03-20T20:57:56.647Z,3.30
2023-03-20T21:00:40.979Z,2.57
2023-03-20T21:03:15.825Z,2.50
2023-03-20T21:05:43.929Z,3.47
2023-03-20T21:08:14.162Z,2.83
2023-03-20T21:10:42.434Z,2.57
2023-03-20T21:13:10.680Z,3.67
2023-03-20T21:15:39.468Z,2.50
2023-03-20T21:18:07.617Z,3.90
2023-03-20T21:20:37.319Z,2.30
2023-03-20T21:23:05.272Z,2.17
2023-03-20T21:25:44.802Z,2.50
2023-03-20T21:28:14.211Z,2.30
2023-03-20T21:30:56.427Z,2.43
2023-03-20T21:33:31.210Z,2.57
2023-03-20T21:36:00.653Z,3.10
2023-03-20T21:41:17.145Z,2.97
2023-03-20T21:43:47.124Z,3.20
2023-03-20T21:58:21.412Z,4.10
2023-03-20T22:04:06.349Z,3.60
2023-03-20T22:12:38.415Z,3.50
2023-03-20T22:15:31.536Z,3.90
2023-03-20T22:18:12.010Z,4.80
2023-03-20T22:21:15.671Z,3.13
2023-03-20T22:23:54.870Z,4.13
2023-03-20T22:26:56.558Z,2.90
2023-03-20T22:29:35.801Z,2.70
2023-03-20T22:40:53.599Z,4.07
2023-03-20T22:46:03.440Z,2.80
2023-03-20T22:48:33.677Z,3.03
2023-03-20T22:51:01.762Z,2.60
2023-03-20T22:53:30.968Z,2.90
2023-03-20T22:55:58.982Z,2.93
2023-03-20T22:58:28.272Z,3.57
2023-03-20T23:00:57.165Z,3.13
2023-03-20T23:03:40.361Z,3.90
2023-03-20T23:06:11.101Z,2.40
2023-03-20T23:08:48.937Z,3.10
2023-03-20T23:11:20.551Z,2.77
2023-03-20T23:13:50.196Z,3.00
2023-03-20T23:16:18.420Z,3.10
2023-03-20T23:18:46.373Z,3.50
2023-03-20T23:21:14.271Z,3.80
2023-03-20T23:23:42.096Z,4.17
2023-03-20T23:26:11.927Z,3.67
2023-03-20T23:28:40.636Z,2.47
2023-03-20T23:31:12.251Z,2.73
2023-03-20T23:33:40.636Z,3.90
2023-03-20T23:36:19.020Z,4.57
2023-03-20T23:38:52.730Z,2.90
2023-03-20T23:41:20.751Z,3.17
2023-03-20T23:43:50.599Z,3.03
2023-03-20T23:46:21.473Z,5.33
2023-03-20T23:48:49.279Z,2.90
2023-03-20T23:51:17.179Z,4.80
2023-03-20T23:53:44.969Z,3.00
2023-03-20T23:56:13.651Z,3.20
2023-03-20T23:58:47.587Z,4.80
